Time;durP1;ratioP1;P1;durP2;ratioP2;P2;SDS_P1;SDS_P2;PMS_P1;PMS_P2;Temp;Humidity;BMP_temperature;BMP_pressure;BME280_temperature;BME280_humidity;BME280_pressure;Samples;Min_cycle;Max_cycle;Signal;HPM_P1;HPM_P2
2023/06/21 00:02:21;;;;;;;;;;;18.30;99.90;;;;;;5048310;28;19912;-80
2023/06/21 01:00:53;;;;;;;;;;;18.00;99.90;;;;;;5019969;28;20778;-79
2023/06/21 01:03:20;;;;;;;;;;;17.80;99.90;;;;;;5038854;28;19943;-78
2023/06/21 01:06:05;;;;;;;;;;;17.90;99.90;;;;;;5042922;28;19909;-79
2023/06/21 01:08:35;;;;;;;;;;;17.80;99.90;;;;;;5046817;28;19979;-79
2023/06/21 01:11:05;;;;;;;;;;;17.70;99.90;;;;;;5044591;28;19913;-79
2023/06/21 01:13:49;;;;;;;;;;;18.00;99.90;;;;;;5044859;28;19905;-80
2023/06/21 01:16:16;;;;;;;;;;;17.80;99.90;;;;;;5027207;28;19916;-80
2023/06/21 01:18:45;;;;;;;;;;;17.90;99.90;;;;;;5046433;28;19958;-82
2023/06/21 01:21:16;;;;;;;;;;;17.80;99.90;;;;;;5044140;28;19909;-81
2023/06/21 01:23:50;;;;;;;;;;;17.60;99.90;;;;;;5044541;28;19915;-81
2023/06/21 01:26:19;;;;;;;;;;;17.80;99.90;;;;;;5049682;28;20521;-81
2023/06/21 01:29:00;;;;;;;;;;;17.70;99.90;;;;;;5029569;28;19912;-80
2023/06/21 01:31:27;;;;;;;;;;;17.60;99.90;;;;;;5043787;28;20062;-79
2023/06/21 01:33:54;;;;;;;;;;;17.60;99.90;;;;;;5031864;28;20736;-79
2023/06/21 01:36:22;;;;;;;;;;;17.60;99.90;;;;;;5039549;28;19920;-79
2023/06/21 01:38:49;;;;;;;;;;;17.60;99.90;;;;;;5045996;28;20886;-79
2023/06/21 01:41:15;;;;;;;;;;;17.60;99.90;;;;;;5043235;28;19912;-78
2023/06/21 01:43:41;;;;;;;;;;;17.60;99.90;;;;;;5050641;28;19928;-79
2023/06/21 01:46:07;;;;;;;;;;;17.60;99.90;;;;;;5051812;28;19920;-79
2023/06/21 01:48:34;;;;;;;;;;;17.60;99.90;;;;;;5044746;28;20295;-80
2023/06/21 01:51:03;;;;;;;;;;;17.60;99.90;;;;;;5024442;28;20026;-80
2023/06/21 01:53:31;;;;;;;;;;;17.60;99.90;;;;;;5042973;28;19917;-80
2023/06/21 01:55:57;;;;;;;;;;;17.60;99.90;;;;;;5027490;28;20373;-80
2023/06/21 01:58:22;;;;;;;;;;;17.60;99.90;;;;;;5047012;28;19923;-80
2023/06/21 02:00:48;;;;;;;;;;;17.70;99.90;;;;;;5045249;28;20718;-80
2023/06/21 02:03:15;;;;;;;;;;;17.80;99.90;;;;;;5043800;28;19912;-80
2023/06/21 02:05:41;;;;;;;;;;;17.80;99.90;;;;;;5041835;28;19913;-80
2023/06/21 02:08:11;;;;;;;;;;;17.80;99.90;;;;;;5043959;28;19909;-80
2023/06/21 02:10:37;;;;;;;;;;;17.90;99.90;;;;;;5053484;28;19916;-80
2023/06/21 02:13:02;;;;;;;;;;;17.60;99.90;;;;;;5042700;28;19909;-80
2023/06/21 02:15:28;;;;;;;;;;;17.80;99.90;;;;;;5047447;28;19915;-81
2023/06/21 02:17:53;;;;;;;;;;;17.70;99.90;;;;;;5046915;28;20035;-81
2023/06/21 02:20:20;;;;;;;;;;;17.60;99.90;;;;;;5036810;28;19908;-81
2023/06/21 02:22:45;;;;;;;;;;;17.70;99.90;;;;;;5043537;28;20363;-80
2023/06/21 02:25:11;;;;;;;;;;;17.60;99.90;;;;;;5042479;28;19916;-80
2023/06/21 02:27:37;;;;;;;;;;;17.60;99.90;;;;;;5045676;28;19920;-80
2023/06/21 02:30:03;;;;;;;;;;;17.60;99.90;;;;;;5042835;28;19917;-80
2023/06/21 02:32:29;;;;;;;;;;;17.50;99.90;;;;;;5023871;28;20522;-80
2023/06/21 02:34:54;;;;;;;;;;;17.80;99.90;;;;;;5042479;28;19916;-79
2023/06/21 02:37:20;;;;;;;;;;;17.80;99.90;;;;;;5045890;28;19923;-79
2023/06/21 02:39:45;;;;;;;;;;;17.70;99.90;;;;;;5045638;28;20367;-78
2023/06/21 02:42:11;;;;;;;;;;;17.60;99.90;;;;;;5043552;28;20356;-79
2023/06/21 02:44:36;;;;;;;;;;;17.60;99.90;;;;;;5046051;28;19919;-79
2023/06/21 02:47:02;;;;;;;;;;;17.50;99.90;;;;;;5043044;28;19948;-78
2023/06/21 02:49:28;;;;;;;;;;;17.50;99.90;;;;;;5042354;28;19917;-79
2023/06/21 02:51:53;;;;;;;;;;;17.60;99.90;;;;;;5045105;28;20012;-80
2023/06/21 02:54:19;;;;;;;;;;;17.60;99.90;;;;;;5026079;28;19913;-79
2023/06/21 02:56:45;;;;;;;;;;;17.50;99.90;;;;;;5045494;28;19948;-79
2023/06/21 02:59:11;;;;;;;;;;;17.40;99.90;;;;;;5044815;28;20387;-79
2023/06/21 03:01:36;;;;;;;;;;;17.40;99.90;;;;;;5026200;28;20049;-79
2023/06/21 03:04:02;;;;;;;;;;;17.40;99.90;;;;;;5045845;28;19913;-79
2023/06/21 03:06:29;;;;;;;;;;;17.30;99.90;;;;;;5041575;28;20328;-79
2023/06/21 03:08:58;;;;;;;;;;;17.30;99.90;;;;;;5042507;28;20007;-79
2023/06/21 03:11:23;;;;;;;;;;;17.30;99.90;;;;;;5045113;28;19927;-79
2023/06/21 03:13:49;;;;;;;;;;;17.20;99.90;;;;;;5045673;28;19909;-79
2023/06/21 03:16:15;;;;;;;;;;;17.20;99.90;;;;;;5054289;28;19978;-78
2023/06/21 03:18:40;;;;;;;;;;;17.20;99.90;;;;;;5049765;28;19960;-79
2023/06/21 03:21:06;;;;;;;;;;;17.30;99.90;;;;;;5024714;28;19905;-79
2023/06/21 03:23:31;;;;;;;;;;;17.20;99.90;;;;;;5041289;28;20011;-79
2023/06/21 03:25:57;;;;;;;;;;;17.20;99.90;;;;;;5042333;28;19920;-79
2023/06/21 03:28:23;;;;;;;;;;;17.20;99.90;;;;;;5041473;28;20391;-79
2023/06/21 03:30:48;;;;;;;;;;;17.20;99.90;;;;;;5044730;28;20251;-80
2023/06/21 03:33:14;;;;;;;;;;;17.20;99.90;;;;;;5044508;28;20338;-80
2023/06/21 03:35:39;;;;;;;;;;;17.10;99.90;;;;;;5044085;28;20347;-79
2023/06/21 03:38:07;;;;;;;;;;;17.20;99.90;;;;;;5047762;28;20401;-79
2023/06/21 03:40:33;;;;;;;;;;;17.10;99.90;;;;;;5041994;28;19995;-79
2023/06/21 03:42:58;;;;;;;;;;;17.10;99.90;;;;;;5042283;28;19913;-78
2023/06/21 03:45:24;;;;;;;;;;;17.10;99.90;;;;;;5046650;28;19909;-79
2023/06/21 03:47:49;;;;;;;;;;;17.00;99.90;;;;;;5045241;28;20371;-79
2023/06/21 03:50:15;;;;;;;;;;;17.00;99.90;;;;;;5033287;28;20007;-79
2023/06/21 03:52:40;;;;;;;;;;;17.00;99.90;;;;;;5047240;28;19913;-79
2023/06/21 03:55:06;;;;;;;;;;;17.00;99.90;;;;;;5051484;28;19905;-79
2023/06/21 03:57:32;;;;;;;;;;;17.10;99.90;;;;;;5046227;28;19908;-79
2023/06/21 03:59:58;;;;;;;;;;;17.00;99.90;;;;;;5054459;28;20401;-79
2023/06/21 04:02:24;;;;;;;;;;;17.00;99.90;;;;;;5050378;28;20011;-79
2023/06/21 04:04:49;;;;;;;;;;;17.00;99.90;;;;;;5039804;28;20465;-79
2023/06/21 04:07:19;;;;;;;;;;;16.90;99.90;;;;;;5045167;28;20369;-80
2023/06/21 04:09:45;;;;;;;;;;;16.90;99.90;;;;;;5042842;28;19964;-80
2023/06/21 04:12:11;;;;;;;;;;;16.90;99.90;;;;;;5050349;28;19916;-80
2023/06/21 04:14:36;;;;;;;;;;;16.90;99.90;;;;;;5045656;28;19912;-80
2023/06/21 04:17:02;;;;;;;;;;;16.90;99.90;;;;;;5049320;28;20508;-80
2023/06/21 04:19:28;;;;;;;;;;;16.90;99.90;;;;;;5058318;28;19916;-80
2023/06/21 04:21:54;;;;;;;;;;;16.90;99.90;;;;;;5056831;28;19959;-81
2023/06/21 04:24:19;;;;;;;;;;;16.90;99.90;;;;;;5045425;28;19915;-80
2023/06/21 04:26:45;;;;;;;;;;;16.90;99.90;;;;;;5045585;28;20708;-79
2023/06/21 04:29:10;;;;;;;;;;;16.90;99.90;;;;;;5046385;28;19927;-78
2023/06/21 04:31:37;;;;;;;;;;;17.00;99.90;;;;;;5039900;28;19917;-77
2023/06/21 04:34:03;;;;;;;;;;;16.90;99.90;;;;;;5043826;28;19917;-76
2023/06/21 04:36:29;;;;;;;;;;;17.00;99.90;;;;;;5044176;28;20042;-77
2023/06/21 04:38:55;;;;;;;;;;;17.00;99.90;;;;;;5044273;28;20014;-77
2023/06/21 04:41:21;;;;;;;;;;;17.00;99.90;;;;;;5042532;28;19925;-77
2023/06/21 04:43:47;;;;;;;;;;;17.00;99.90;;;;;;5025827;28;19999;-77
2023/06/21 04:46:13;;;;;;;;;;;17.00;99.90;;;;;;5044602;28;20300;-77
2023/06/21 04:48:39;;;;;;;;;;;17.00;99.90;;;;;;5043164;28;20505;-77
2023/06/21 04:51:04;;;;;;;;;;;17.00;99.90;;;;;;5042733;28;20460;-78
2023/06/21 04:53:30;;;;;;;;;;;17.00;99.90;;;;;;5042185;28;19996;-78
2023/06/21 04:55:57;;;;;;;;;;;17.10;99.90;;;;;;5040141;28;19923;-78
2023/06/21 04:58:23;;;;;;;;;;;17.10;99.90;;;;;;5042765;28;19938;-77
2023/06/21 05:00:49;;;;;;;;;;;17.10;99.90;;;;;;5044032;28;19917;-78
2023/06/21 05:03:14;;;;;;;;;;;17.10;99.90;;;;;;5044846;28;19919;-76
2023/06/21 05:05:40;;;;;;;;;;;17.20;99.90;;;;;;5042869;28;19924;-76
2023/06/21 05:08:06;;;;;;;;;;;17.30;99.90;;;;;;5040086;28;20747;-78
2023/06/21 05:10:32;;;;;;;;;;;17.80;99.90;;;;;;5042812;28;20438;-77
2023/06/21 05:12:58;;;;;;;;;;;18.20;99.90;;;;;;5043910;28;20010;-77
2023/06/21 05:15:23;;;;;;;;;;;17.90;99.90;;;;;;5044954;28;20477;-77
2023/06/21 05:17:49;;;;;;;;;;;17.80;99.90;;;;;;5043323;28;20368;-76
2023/06/21 05:20:14;;;;;;;;;;;17.80;99.90;;;;;;5028841;28;19912;-76
2023/06/21 05:22:42;;;;;;;;;;;17.80;99.90;;;;;;5043073;28;20016;-78
2023/06/21 05:25:08;;;;;;;;;;;18.00;99.90;;;;;;5024724;28;20391;-76
2023/06/21 05:27:34;;;;;;;;;;;18.20;99.90;;;;;;5039606;28;19923;-75
2023/06/21 05:29:59;;;;;;;;;;;18.20;99.90;;;;;;5042458;28;19928;-75
2023/06/21 05:32:27;;;;;;;;;;;18.10;99.90;;;;;;5029423;28;19920;-76
2023/06/21 05:34:53;;;;;;;;;;;18.10;99.90;;;;;;5041331;28;19912;-75
2023/06/21 05:37:19;;;;;;;;;;;18.50;99.90;;;;;;5042692;28;19915;-75
2023/06/21 05:39:44;;;;;;;;;;;18.20;99.90;;;;;;5043640;28;19913;-76
2023/06/21 05:42:13;;;;;;;;;;;18.30;99.90;;;;;;5041225;28;19993;-75
2023/06/21 05:44:42;;;;;;;;;;;18.50;99.90;;;;;;5025484;28;20521;-76
2023/06/21 05:47:07;;;;;;;;;;;18.80;99.90;;;;;;5038226;28;19916;-79
2023/06/21 05:49:33;;;;;;;;;;;19.70;99.90;;;;;;5040505;28;19921;-77
2023/06/21 05:51:59;;;;;;;;;;;20.70;99.90;;;;;;5041832;28;20444;-75
2023/06/21 05:54:28;;;;;;;;;;;20.20;99.90;;;;;;5028861;28;19959;-76
2023/06/21 05:56:57;;;;;;;;;;;18.90;99.90;;;;;;5023312;28;19947;-77
2023/06/21 05:59:23;;;;;;;;;;;18.30;99.90;;;;;;5042356;28;20370;-79
2023/06/21 06:01:48;;;;;;;;;;;18.00;99.90;;;;;;5018374;28;19972;-77
2023/06/21 06:04:14;;;;;;;;;;;18.20;99.90;;;;;;5011399;28;19949;-78
2023/06/21 06:06:40;;;;;;;;;;;18.60;99.90;;;;;;5028015;28;20018;-77
2023/06/21 06:09:10;;;;;;;;;;;18.80;99.90;;;;;;5036910;28;20003;-79
2023/06/21 06:11:36;;;;;;;;;;;18.90;99.90;;;;;;5016033;28;19913;-77
2023/06/21 06:14:02;;;;;;;;;;;19.20;99.90;;;;;;5032678;28;19920;-78
2023/06/21 06:16:28;;;;;;;;;;;19.20;99.90;;;;;;5038466;28;20003;-78
2023/06/21 06:18:53;;;;;;;;;;;19.00;99.90;;;;;;5012913;28;19913;-78
2023/06/21 06:21:22;;;;;;;;;;;19.00;99.90;;;;;;5036163;28;19917;-79
2023/06/21 06:23:51;;;;;;;;;;;19.20;99.90;;;;;;5021893;28;19912;-77
2023/06/21 06:26:21;;;;;;;;;;;19.30;99.90;;;;;;5022998;28;19913;-76
2023/06/21 06:28:47;;;;;;;;;;;19.10;99.90;;;;;;5023612;28;19909;-76
2023/06/21 06:31:13;;;;;;;;;;;18.90;99.90;;;;;;5022681;28;19928;-76
2023/06/21 06:33:38;;;;;;;;;;;18.80;99.90;;;;;;5038001;28;20381;-75
2023/06/21 06:36:05;;;;;;;;;;;18.70;99.90;;;;;;5022712;28;19909;-76
2023/06/21 06:38:30;;;;;;;;;;;18.90;99.90;;;;;;5038389;28;19955;-75
2023/06/21 06:40:56;;;;;;;;;;;18.70;99.90;;;;;;5023464;28;20398;-75
2023/06/21 06:43:21;;;;;;;;;;;18.50;99.90;;;;;;5023202;28;19965;-75
2023/06/21 06:45:47;;;;;;;;;;;18.30;99.90;;;;;;5023471;28;19909;-76
2023/06/21 06:48:12;;;;;;;;;;;18.20;99.90;;;;;;5021402;28;19913;-76
2023/06/21 06:50:38;;;;;;;;;;;18.20;99.90;;;;;;5027423;28;19948;-76
2023/06/21 06:53:05;;;;;;;;;;;18.20;99.90;;;;;;5021776;28;19909;-75
2023/06/21 06:55:31;;;;;;;;;;;18.30;99.90;;;;;;5022591;28;19917;-75
2023/06/21 06:57:58;;;;;;;;;;;18.30;99.90;;;;;;5018285;28;19917;-76
2023/06/21 07:00:25;;;;;;;;;;;18.30;99.90;;;;;;5020672;28;19933;-76
2023/06/21 07:02:56;;;;;;;;;;;18.50;99.90;;;;;;5038898;28;20295;-75
2023/06/21 07:05:24;;;;;;;;;;;18.60;99.90;;;;;;5042434;28;19912;-77
2023/06/21 07:07:50;;;;;;;;;;;18.90;99.90;;;;;;5021354;28;19909;-76
2023/06/21 07:10:16;;;;;;;;;;;18.90;99.90;;;;;;5040695;28;19924;-75
2023/06/21 07:12:42;;;;;;;;;;;19.00;99.90;;;;;;5043260;28;20725;-77
2023/06/21 07:15:08;;;;;;;;;;;19.10;99.90;;;;;;5049316;28;19908;-76
2023/06/21 07:17:34;;;;;;;;;;;19.50;99.90;;;;;;5050567;28;19959;-76
2023/06/21 07:19:59;;;;;;;;;;;19.70;99.90;;;;;;5043121;28;20346;-76
2023/06/21 07:22:25;;;;;;;;;;;19.80;99.90;;;;;;5042620;28;19908;-76
2023/06/21 07:24:50;;;;;;;;;;;19.60;99.90;;;;;;5041941;28;19912;-75
2023/06/21 07:27:16;;;;;;;;;;;19.50;99.90;;;;;;5043660;28;20016;-76
2023/06/21 07:29:41;;;;;;;;;;;19.20;99.90;;;;;;5042198;28;20011;-76
2023/06/21 07:32:07;;;;;;;;;;;19.10;99.90;;;;;;5040446;28;20595;-76
2023/06/21 07:34:33;;;;;;;;;;;18.90;99.90;;;;;;5030592;28;19951;-76
2023/06/21 07:36:58;;;;;;;;;;;18.70;99.90;;;;;;5024438;28;19905;-76
2023/06/21 07:39:24;;;;;;;;;;;18.60;99.90;;;;;;5031077;28;20291;-76
2023/06/21 07:41:50;;;;;;;;;;;18.70;99.90;;;;;;5042906;28;19935;-75
2023/06/21 07:44:17;;;;;;;;;;;18.50;99.90;;;;;;5042553;28;19911;-75
2023/06/21 07:46:43;;;;;;;;;;;18.40;99.90;;;;;;5042744;28;19909;-76
2023/06/21 07:49:08;;;;;;;;;;;18.40;99.90;;;;;;5041323;28;21153;-75
2023/06/21 07:51:34;;;;;;;;;;;18.30;99.90;;;;;;5042855;28;20374;-76
2023/06/21 07:53:59;;;;;;;;;;;18.40;99.90;;;;;;5042051;28;19915;-76
2023/06/21 07:56:25;;;;;;;;;;;18.50;99.90;;;;;;5018238;28;19915;-76
2023/06/21 07:58:50;;;;;;;;;;;18.50;99.90;;;;;;5037821;28;19912;-75
2023/06/21 08:01:16;;;;;;;;;;;18.60;99.90;;;;;;5041049;28;20803;-76
2023/06/21 08:03:42;;;;;;;;;;;18.70;99.90;;;;;;5042219;28;19999;-76
2023/06/21 08:06:07;;;;;;;;;;;18.90;99.90;;;;;;5041964;28;19995;-77
2023/06/21 08:08:33;;;;;;;;;;;19.00;99.90;;;;;;5041541;28;19954;-76
2023/06/21 08:10:58;;;;;;;;;;;19.10;99.90;;;;;;5040176;28;20481;-76
2023/06/21 08:13:24;;;;;;;;;;;19.20;99.90;;;;;;5042310;28;19909;-76
2023/06/21 08:15:51;;;;;;;;;;;19.80;99.90;;;;;;5041655;28;19908;-76
2023/06/21 08:18:17;;;;;;;;;;;20.40;99.90;;;;;;5041874;28;19932;-76
2023/06/21 08:20:42;;;;;;;;;;;20.70;99.90;;;;;;5042341;28;20251;-78
2023/06/21 08:23:08;;;;;;;;;;;21.00;99.90;;;;;;5031762;28;19915;-76
2023/06/21 08:25:35;;;;;;;;;;;21.00;99.90;;;;;;5032929;28;19956;-75
2023/06/21 08:28:01;;;;;;;;;;;21.10;99.90;;;;;;5040417;28;19916;-76
2023/06/21 08:30:26;;;;;;;;;;;21.40;99.90;;;;;;5042517;28;19916;-77
2023/06/21 08:32:52;;;;;;;;;;;21.80;99.90;;;;;;5044550;28;19909;-75
2023/06/21 08:35:17;;;;;;;;;;;22.60;99.90;;;;;;5044287;28;20564;-77
2023/06/21 08:37:53;;;;;;;;;;;22.70;99.10;;;;;;5045007;28;20411;-75
2023/06/21 08:40:20;;;;;;;;;;;23.00;99.90;;;;;;5044572;28;19958;-76
2023/06/21 08:42:45;;;;;;;;;;;23.50;98.70;;;;;;5043863;28;19913;-76
2023/06/21 08:45:11;;;;;;;;;;;24.70;96.50;;;;;;5045111;28;19913;-75
2023/06/21 08:47:37;;;;;;;;;;;25.30;93.70;;;;;;5044191;28;19915;-75
2023/06/21 08:50:03;;;;;;;;;;;25.60;93.50;;;;;;5044968;28;19916;-76
2023/06/21 08:52:29;;;;;;;;;;;26.50;90.60;;;;;;5041840;28;19979;-75
2023/06/21 08:55:00;;;;;;;;;;;25.80;91.50;;;;;;5043409;28;19943;-76
2023/06/21 08:57:27;;;;;;;;;;;26.10;91.90;;;;;;5036560;28;19912;-76
2023/06/21 08:59:55;;;;;;;;;;;26.40;88.40;;;;;;5044907;28;19918;-75
2023/06/21 09:02:21;;;;;;;;;;;25.70;90.60;;;;;;5043622;28;20448;-75
2023/06/21 09:04:48;;;;;;;;;;;24.80;91.00;;;;;;5037819;28;19908;-76
2023/06/21 09:07:14;;;;;;;;;;;24.00;93.10;;;;;;5041457;28;19908;-75
2023/06/21 09:09:41;;;;;;;;;;;23.40;94.80;;;;;;5044725;28;20007;-76
2023/06/21 09:12:07;;;;;;;;;;;23.00;95.40;;;;;;5044802;28;19916;-77
2023/06/21 09:14:33;;;;;;;;;;;23.30;95.20;;;;;;5042950;28;19908;-77
2023/06/21 09:17:02;;;;;;;;;;;24.10;93.50;;;;;;5042069;28;19909;-76
2023/06/21 09:19:28;;;;;;;;;;;25.60;93.00;;;;;;5031765;28;19940;-76
2023/06/21 09:21:55;;;;;;;;;;;27.70;89.40;;;;;;5046035;28;19909;-76
2023/06/21 09:24:21;;;;;;;;;;;31.80;78.70;;;;;;5043919;28;20560;-75
2023/06/21 09:26:47;;;;;;;;;;;32.90;70.30;;;;;;5033180;28;19908;-76
2023/06/21 09:29:13;;;;;;;;;;;33.40;71.60;;;;;;5044178;28;19992;-77
2023/06/21 09:31:38;;;;;;;;;;;31.40;70.80;;;;;;5023641;28;19909;-77
2023/06/21 09:34:04;;;;;;;;;;;30.10;76.80;;;;;;5019995;28;20670;-76
2023/06/21 09:36:29;;;;;;;;;;;31.90;72.00;;;;;;5042761;28;20070;-76
2023/06/21 09:39:08;;;;;;;;;;;30.60;75.90;;;;;;5044478;28;19915;-77
2023/06/21 09:41:34;;;;;;;;;;;32.20;71.20;;;;;;5044331;28;19924;-76
2023/06/21 09:43:59;;;;;;;;;;;31.50;70.70;;;;;;5044010;28;19909;-76
2023/06/21 09:46:25;;;;;;;;;;;30.80;68.90;;;;;;5042992;28;19905;-75
2023/06/21 09:48:50;;;;;;;;;;;30.30;71.40;;;;;;5039217;28;19913;-75
2023/06/21 09:51:18;;;;;;;;;;;30.50;72.60;;;;;;5028734;28;20627;-76
2023/06/21 09:53:45;;;;;;;;;;;29.60;70.10;;;;;;5041447;28;20707;-75
2023/06/21 09:56:18;;;;;;;;;;;29.10;76.80;;;;;;5043962;28;19909;-76
2023/06/21 09:58:44;;;;;;;;;;;28.50;77.70;;;;;;5044398;28;20687;-76
2023/06/21 10:01:13;;;;;;;;;;;28.00;78.50;;;;;;5044397;28;19920;-75
2023/06/21 10:03:39;;;;;;;;;;;27.50;76.90;;;;;;5035447;28;19979;-76
2023/06/21 10:06:04;;;;;;;;;;;27.50;77.70;;;;;;5035393;28;19908;-77
2023/06/21 10:08:33;;;;;;;;;;;27.50;79.30;;;;;;5038964;28;19905;-76
2023/06/21 10:10:58;;;;;;;;;;;27.20;80.10;;;;;;5043534;28;19924;-78
2023/06/21 10:13:25;;;;;;;;;;;26.90;79.70;;;;;;5050502;28;19908;-78
2023/06/21 10:15:51;;;;;;;;;;;26.40;82.50;;;;;;5038785;28;19909;-76
2023/06/21 10:18:16;;;;;;;;;;;25.90;83.40;;;;;;5022133;28;19909;-76
2023/06/21 10:20:42;;;;;;;;;;;25.50;85.30;;;;;;5035386;28;20381;-75
2023/06/21 10:23:08;;;;;;;;;;;25.30;86.20;;;;;;5043899;28;19915;-75
2023/06/21 10:25:35;;;;;;;;;;;25.50;88.00;;;;;;5042040;28;19962;-75
2023/06/21 10:28:02;;;;;;;;;;;26.00;85.40;;;;;;5043328;28;19912;-75
2023/06/21 10:30:28;;;;;;;;;;;26.40;85.10;;;;;;5042896;28;19916;-76
2023/06/21 10:32:55;;;;;;;;;;;26.40;84.50;;;;;;5041269;28;19919;-77
2023/06/21 10:35:21;;;;;;;;;;;26.40;82.00;;;;;;5042819;28;19999;-77
2023/06/21 10:37:53;;;;;;;;;;;26.60;81.90;;;;;;5041395;28;19908;-76
2023/06/21 10:40:19;;;;;;;;;;;26.60;83.60;;;;;;5035271;28;19948;-76
2023/06/21 10:42:45;;;;;;;;;;;26.00;85.10;;;;;;5043951;28;20024;-76
2023/06/21 10:45:11;;;;;;;;;;;25.50;88.90;;;;;;5041412;28;19913;-75
2023/06/21 10:47:38;;;;;;;;;;;25.30;90.40;;;;;;5041474;28;19908;-76
2023/06/21 10:50:04;;;;;;;;;;;25.70;90.30;;;;;;5026560;28;19924;-76
2023/06/21 10:52:30;;;;;;;;;;;25.90;88.00;;;;;;5042036;28;19908;-75
2023/06/21 10:54:57;;;;;;;;;;;26.00;83.90;;;;;;5038191;28;19963;-75
2023/06/21 10:57:27;;;;;;;;;;;25.80;85.10;;;;;;5036843;28;19913;-75
2023/06/21 10:59:54;;;;;;;;;;;25.60;87.50;;;;;;5043440;28;20428;-77
2023/06/21 11:02:19;;;;;;;;;;;25.30;88.50;;;;;;5033875;28;19954;-76
2023/06/21 11:05:04;;;;;;;;;;;24.90;87.00;;;;;;5041263;28;20003;-78
2023/06/21 11:07:29;;;;;;;;;;;24.50;90.20;;;;;;5015685;28;20456;-77
2023/06/21 11:10:02;;;;;;;;;;;24.70;90.00;;;;;;5043502;28;19961;-76
2023/06/21 11:12:27;;;;;;;;;;;24.80;89.60;;;;;;5042432;28;19915;-77
2023/06/21 11:14:54;;;;;;;;;;;25.10;90.50;;;;;;5042582;28;19915;-76
2023/06/21 11:17:24;;;;;;;;;;;25.10;89.20;;;;;;5041987;28;19912;-76
2023/06/21 11:19:49;;;;;;;;;;;25.00;89.00;;;;;;5017098;28;19923;-78
2023/06/21 11:22:21;;;;;;;;;;;25.20;87.80;;;;;;5038769;28;19912;-76
2023/06/21 11:24:57;;;;;;;;;;;25.60;89.20;;;;;;5039789;28;19923;-78
2023/06/21 11:27:25;;;;;;;;;;;25.50;87.80;;;;;;5034040;28;19963;-77
2023/06/21 11:30:03;;;;;;;;;;;25.50;88.40;;;;;;5029625;28;19917;-76
2023/06/21 11:32:29;;;;;;;;;;;25.50;87.30;;;;;;5036548;28;19912;-77
2023/06/21 11:34:59;;;;;;;;;;;25.00;86.70;;;;;;5023830;28;19908;-76
2023/06/21 11:37:43;;;;;;;;;;;24.70;88.80;;;;;;5042436;28;19915;-77
2023/06/21 11:40:10;;;;;;;;;;;24.30;90.20;;;;;;5040041;28;19919;-76
2023/06/21 11:42:46;;;;;;;;;;;23.80;91.80;;;;;;5042653;28;19913;-77
2023/06/21 11:45:22;;;;;;;;;;;23.60;92.00;;;;;;5024554;28;19912;-77
2023/06/21 11:48:18;;;;;;;;;;;23.60;92.70;;;;;;5037253;28;19913;-76
2023/06/21 11:50:48;;;;;;;;;;;23.40;94.10;;;;;;5028600;28;19916;-77
2023/06/21 11:53:28;;;;;;;;;;;23.50;95.90;;;;;;5041683;28;19934;-76
2023/06/21 11:55:54;;;;;;;;;;;22.80;99.90;;;;;;5034072;28;19909;-75
2023/06/21 11:58:20;;;;;;;;;;;22.50;99.90;;;;;;5041576;28;20303;-76
2023/06/21 12:00:46;;;;;;;;;;;22.30;99.90;;;;;;5038945;28;20422;-76
2023/06/21 12:03:12;;;;;;;;;;;22.50;99.90;;;;;;5041417;28;20634;-77
2023/06/21 12:05:42;;;;;;;;;;;22.90;99.90;;;;;;5023022;28;19913;-76
2023/06/21 12:08:07;;;;;;;;;;;23.40;99.90;;;;;;5031359;28;19965;-78
2023/06/21 12:10:34;;;;;;;;;;;24.20;99.90;;;;;;5019705;28;20427;-76
2023/06/21 12:13:12;;;;;;;;;;;23.90;99.90;;;;;;5037320;28;19918;-76
2023/06/21 12:15:38;;;;;;;;;;;24.00;99.90;;;;;;5036660;28;19909;-79
2023/06/21 12:18:07;;;;;;;;;;;24.40;99.90;;;;;;5044891;28;19916;-75
2023/06/21 12:20:35;;;;;;;;;;;24.60;99.30;;;;;;5042401;28;19913;-76
2023/06/21 12:23:01;;;;;;;;;;;24.70;97.90;;;;;;5028066;28;20391;-76
2023/06/21 12:25:27;;;;;;;;;;;25.10;97.70;;;;;;5045637;28;19954;-77
2023/06/21 12:27:55;;;;;;;;;;;24.90;97.00;;;;;;5044836;28;20058;-75
2023/06/21 12:30:20;;;;;;;;;;;24.80;96.90;;;;;;5039264;28;20023;-76
2023/06/21 12:32:46;;;;;;;;;;;25.20;95.90;;;;;;5040511;28;20133;-76
2023/06/21 12:35:12;;;;;;;;;;;25.30;95.40;;;;;;5035896;28;19920;-77
2023/06/21 12:37:37;;;;;;;;;;;25.40;95.00;;;;;;5043856;28;19908;-76
2023/06/21 12:40:05;;;;;;;;;;;25.40;93.60;;;;;;5043955;28;19912;-77
2023/06/21 12:42:31;;;;;;;;;;;25.50;92.20;;;;;;5037121;28;19923;-76
2023/06/21 12:44:57;;;;;;;;;;;25.10;92.80;;;;;;5043937;28;19908;-77
2023/06/21 12:47:22;;;;;;;;;;;24.90;92.20;;;;;;5045407;28;19913;-76
2023/06/21 12:49:48;;;;;;;;;;;24.70;92.50;;;;;;5044625;28;19916;-77
2023/06/21 12:52:14;;;;;;;;;;;25.00;93.30;;;;;;5045575;28;19909;-76
2023/06/21 12:54:51;;;;;;;;;;;24.80;91.30;;;;;;5023731;28;20288;-79
2023/06/21 12:57:16;;;;;;;;;;;24.80;92.50;;;;;;5045862;28;19912;-77
2023/06/21 12:59:42;;;;;;;;;;;24.60;91.90;;;;;;5045559;28;19959;-77
2023/06/21 13:02:09;;;;;;;;;;;24.20;92.00;;;;;;5044101;28;19927;-76
2023/06/21 13:04:34;;;;;;;;;;;24.10;92.80;;;;;;5041868;28;20092;-78
2023/06/21 13:07:00;;;;;;;;;;;24.10;92.70;;;;;;5042286;28;20277;-78
2023/06/21 13:09:26;;;;;;;;;;;24.30;93.00;;;;;;5021666;28;20309;-79
2023/06/21 13:11:51;;;;;;;;;;;24.70;92.30;;;;;;5034889;28;20419;-77
2023/06/21 13:14:17;;;;;;;;;;;25.10;92.00;;;;;;5033861;28;19915;-77
2023/06/21 13:16:42;;;;;;;;;;;25.40;91.70;;;;;;5044660;28;20276;-77
2023/06/21 13:19:08;;;;;;;;;;;25.40;91.60;;;;;;5043243;28;19919;-76
2023/06/21 13:21:34;;;;;;;;;;;25.50;91.20;;;;;;5043720;28;19915;-76
2023/06/21 13:24:00;;;;;;;;;;;25.80;91.00;;;;;;5040492;28;20007;-77
2023/06/21 13:26:26;;;;;;;;;;;25.70;90.70;;;;;;5043139;28;19904;-76
2023/06/21 13:28:51;;;;;;;;;;;25.50;91.30;;;;;;5034802;28;19963;-76
2023/06/21 13:31:18;;;;;;;;;;;25.30;91.40;;;;;;5042598;28;19991;-76
2023/06/21 13:33:43;;;;;;;;;;;25.20;91.00;;;;;;5045609;28;20385;-76
2023/06/21 13:36:09;;;;;;;;;;;25.10;91.50;;;;;;5041848;28;20058;-77
2023/06/21 13:38:35;;;;;;;;;;;24.90;91.50;;;;;;5044517;28;19912;-78
2023/06/21 13:41:03;;;;;;;;;;;24.80;91.50;;;;;;5042686;28;19912;-77
2023/06/21 13:43:29;;;;;;;;;;;24.80;92.10;;;;;;5034061;28;19969;-77
2023/06/21 13:45:54;;;;;;;;;;;24.70;92.20;;;;;;5039891;28;19908;-77
2023/06/21 13:48:20;;;;;;;;;;;24.80;91.50;;;;;;5046999;28;20102;-78
2023/06/21 13:50:45;;;;;;;;;;;25.00;90.50;;;;;;5042993;28;19959;-76
2023/06/21 13:53:11;;;;;;;;;;;25.20;90.90;;;;;;5025818;28;19952;-76
2023/06/21 13:55:36;;;;;;;;;;;25.30;90.60;;;;;;5043655;28;19909;-76
2023/06/21 13:58:02;;;;;;;;;;;25.40;90.80;;;;;;5044398;28;20672;-77
2023/06/21 14:00:29;;;;;;;;;;;25.70;90.70;;;;;;5043924;28;20000;-76
2023/06/21 14:02:54;;;;;;;;;;;25.90;90.60;;;;;;5043616;28;19921;-77
2023/06/21 14:05:21;;;;;;;;;;;26.10;89.10;;;;;;5043469;28;20470;-77
2023/06/21 14:07:47;;;;;;;;;;;26.00;88.80;;;;;;5044097;28;19915;-76
2023/06/21 14:10:12;;;;;;;;;;;25.80;88.00;;;;;;5043214;28;19917;-77
2023/06/21 14:12:39;;;;;;;;;;;26.00;89.60;;;;;;5041503;28;20522;-78
2023/06/21 14:15:05;;;;;;;;;;;26.10;89.60;;;;;;5047533;28;19908;-77
2023/06/21 14:17:31;;;;;;;;;;;26.40;87.80;;;;;;5039511;28;19973;-76
2023/06/21 14:19:59;;;;;;;;;;;26.30;88.20;;;;;;5043409;28;19916;-76
2023/06/21 14:22:29;;;;;;;;;;;26.40;88.60;;;;;;5042234;28;19909;-77
2023/06/21 14:24:55;;;;;;;;;;;26.00;86.00;;;;;;5039312;28;20015;-76
2023/06/21 14:27:21;;;;;;;;;;;25.90;88.10;;;;;;5036236;28;20413;-76
2023/06/21 14:29:47;;;;;;;;;;;26.20;87.70;;;;;;5033328;28;19916;-75
2023/06/21 14:32:12;;;;;;;;;;;26.10;87.90;;;;;;5042214;28;19908;-77
2023/06/21 14:34:43;;;;;;;;;;;25.80;89.90;;;;;;5041531;28;20452;-77
2023/06/21 14:37:11;;;;;;;;;;;26.00;88.40;;;;;;5043290;28;20415;-78
2023/06/21 14:39:37;;;;;;;;;;;26.20;89.40;;;;;;5040123;28;19965;-77
2023/06/21 14:42:04;;;;;;;;;;;25.80;88.60;;;;;;5041742;28;19958;-76
2023/06/21 14:44:29;;;;;;;;;;;25.50;90.20;;;;;;5039871;28;20299;-77
2023/06/21 14:46:55;;;;;;;;;;;25.00;90.80;;;;;;5037671;28;19935;-76
2023/06/21 14:49:21;;;;;;;;;;;24.70;91.40;;;;;;5041756;28;19964;-75
2023/06/21 14:51:46;;;;;;;;;;;24.70;91.60;;;;;;5044146;28;19959;-75
2023/06/21 14:54:12;;;;;;;;;;;24.40;91.80;;;;;;5043940;28;19916;-78
2023/06/21 14:56:37;;;;;;;;;;;24.30;92.20;;;;;;5038014;28;19909;-78
2023/06/21 14:59:03;;;;;;;;;;;24.20;92.70;;;;;;5039555;28;20297;-77
2023/06/21 15:01:28;;;;;;;;;;;24.20;93.00;;;;;;5041665;28;19917;-78
2023/06/21 15:03:54;;;;;;;;;;;24.10;93.40;;;;;;5039492;28;19923;-76
2023/06/21 15:06:19;;;;;;;;;;;24.10;94.00;;;;;;5042268;28;19914;-77
2023/06/21 15:08:45;;;;;;;;;;;24.00;94.40;;;;;;5042297;28;20387;-76
2023/06/21 15:11:10;;;;;;;;;;;23.90;94.90;;;;;;5040936;28;20342;-77